sensor_id;sensor_type;location;lat;lon;timestamp;temperature;humidity
61201;DHT22;47065;52.898;6.992;2022-11-09T00:01:18;13.70;99.90
61201;DHT22;47065;52.898;6.992;2022-11-09T00:03:44;13.70;99.90
61201;DHT22;47065;52.898;6.992;2022-11-09T00:06:10;13.70;99.90
61201;DHT22;47065;52.898;6.992;2022-11-09T00:08:37;13.70;99.90
61201;DHT22;47065;52.898;6.992;2022-11-09T00:11:08;13.70;99.90
61201;DHT22;47065;52.898;6.992;2022-11-09T00:13:37;13.70;99.90
61201;DHT22;47065;52.898;6.992;2022-11-09T00:16:03;13.70;99.90
61201;DHT22;47065;52.898;6.992;2022-11-09T00:18:29;13.70;99.90
61201;DHT22;47065;52.898;6.992;2022-11-09T00:20:55;13.60;99.90
61201;DHT22;47065;52.898;6.992;2022-11-09T00:23:21;13.70;99.90
61201;DHT22;47065;52.898;6.992;2022-11-09T00:25:47;13.60;99.90
61201;DHT22;47065;52.898;6.992;2022-11-09T00:28:13;13.60;99.90
61201;DHT22;47065;52.898;6.992;2022-11-09T00:30:40;13.60;99.90
61201;DHT22;47065;52.898;6.992;2022-11-09T00:33:05;13.60;99.90
61201;DHT22;47065;52.898;6.992;2022-11-09T00:35:32;13.50;99.90
61201;DHT22;47065;52.898;6.992;2022-11-09T00:37:57;13.60;99.90
61201;DHT22;47065;52.898;6.992;2022-11-09T00:40:23;13.50;99.90
61201;DHT22;47065;52.898;6.992;2022-11-09T00:42:48;13.50;99.90
61201;DHT22;47065;52.898;6.992;2022-11-09T00:45:14;13.50;99.90
61201;DHT22;47065;52.898;6.992;2022-11-09T00:47:40;13.50;99.90
61201;DHT22;47065;52.898;6.992;2022-11-09T00:50:06;13.50;99.90
61201;DHT22;47065;52.898;6.992;2022-11-09T00:52:32;13.50;99.90
61201;DHT22;47065;52.898;6.992;2022-11-09T00:54:57;13.50;99.90
61201;DHT22;47065;52.898;6.992;2022-11-09T00:57:23;13.50;99.90
61201;DHT22;47065;52.898;6.992;2022-11-09T00:59:49;13.50;99.90
61201;DHT22;47065;52.898;6.992;2022-11-09T01:02:16;13.50;99.90
61201;DHT22;47065;52.898;6.992;2022-11-09T01:04:41;13.50;99.90
61201;DHT22;47065;52.898;6.992;2022-11-09T01:07:07;13.60;99.90
61201;DHT22;47065;52.898;6.992;2022-11-09T01:09:33;13.50;99.90
61201;DHT22;47065;52.898;6.992;2022-11-09T01:11:59;13.60;99.90
61201;DHT22;47065;52.898;6.992;2022-11-09T01:14:25;13.60;99.90
61201;DHT22;47065;52.898;6.992;2022-11-09T01:16:50;13.60;99.90
61201;DHT22;47065;52.898;6.992;2022-11-09T01:19:16;13.60;99.90
61201;DHT22;47065;52.898;6.992;2022-11-09T01:21:42;13.60;99.90
61201;DHT22;47065;52.898;6.992;2022-11-09T01:24:08;13.60;99.90
61201;DHT22;47065;52.898;6.992;2022-11-09T01:26:34;13.70;99.90
61201;DHT22;47065;52.898;6.992;2022-11-09T01:29:00;13.70;99.90
61201;DHT22;47065;52.898;6.992;2022-11-09T01:31:25;13.70;99.90
61201;DHT22;47065;52.898;6.992;2022-11-09T01:33:51;13.70;99.90
61201;DHT22;47065;52.898;6.992;2022-11-09T01:36:22;13.80;99.90
61201;DHT22;47065;52.898;6.992;2022-11-09T01:38:48;13.80;99.90
61201;DHT22;47065;52.898;6.992;2022-11-09T01:41:19;13.90;99.90
61201;DHT22;47065;52.898;6.992;2022-11-09T01:44:19;13.80;99.90
61201;DHT22;47065;52.898;6.992;2022-11-09T01:46:57;13.80;99.90
61201;DHT22;47065;52.898;6.992;2022-11-09T01:50:00;13.80;99.90
61201;DHT22;47065;52.898;6.992;2022-11-09T01:52:29;13.70;99.90
61201;DHT22;47065;52.898;6.992;2022-11-09T01:55:00;13.70;99.90
61201;DHT22;47065;52.898;6.992;2022-11-09T01:57:33;13.70;99.90
61201;DHT22;47065;52.898;6.992;2022-11-09T02:00:08;13.60;99.90
61201;DHT22;47065;52.898;6.992;2022-11-09T02:02:35;13.60;99.90
61201;DHT22;47065;52.898;6.992;2022-11-09T02:05:07;13.60;99.90
61201;DHT22;47065;52.898;6.992;2022-11-09T02:07:33;13.60;99.90
61201;DHT22;47065;52.898;6.992;2022-11-09T02:10:07;13.50;99.90
61201;DHT22;47065;52.898;6.992;2022-11-09T02:12:34;13.60;99.90
61201;DHT22;47065;52.898;6.992;2022-11-09T02:15:06;13.50;99.90
61201;DHT22;47065;52.898;6.992;2022-11-09T02:17:34;13.50;99.90
61201;DHT22;47065;52.898;6.992;2022-11-09T02:19:59;13.40;99.90
61201;DHT22;47065;52.898;6.992;2022-11-09T02:22:25;13.40;99.90
61201;DHT22;47065;52.898;6.992;2022-11-09T02:24:52;13.40;99.90
61201;DHT22;47065;52.898;6.992;2022-11-09T02:27:18;13.30;99.90
61201;DHT22;47065;52.898;6.992;2022-11-09T02:29:46;13.30;99.90
61201;DHT22;47065;52.898;6.992;2022-11-09T02:32:20;13.30;99.90
61201;DHT22;47065;52.898;6.992;2022-11-09T02:34:46;13.20;99.90
61201;DHT22;47065;52.898;6.992;2022-11-09T02:37:12;13.20;99.90
61201;DHT22;47065;52.898;6.992;2022-11-09T02:39:48;13.20;99.90
61201;DHT22;47065;52.898;6.992;2022-11-09T02:42:15;13.20;99.90
61201;DHT22;47065;52.898;6.992;2022-11-09T02:44:46;13.10;99.90
61201;DHT22;47065;52.898;6.992;2022-11-09T02:47:13;13.10;99.90
61201;DHT22;47065;52.898;6.992;2022-11-09T02:49:38;13.10;99.90
61201;DHT22;47065;52.898;6.992;2022-11-09T02:52:04;13.10;99.90
61201;DHT22;47065;52.898;6.992;2022-11-09T02:54:29;13.10;99.90
61201;DHT22;47065;52.898;6.992;2022-11-09T02:56:55;13.10;99.90
61201;DHT22;47065;52.898;6.992;2022-11-09T02:59:21;13.00;99.90
61201;DHT22;47065;52.898;6.992;2022-11-09T03:01:47;13.00;99.90
61201;DHT22;47065;52.898;6.992;2022-11-09T03:04:12;13.00;99.90
61201;DHT22;47065;52.898;6.992;2022-11-09T03:06:38;13.00;99.90
61201;DHT22;47065;52.898;6.992;2022-11-09T03:09:06;12.90;99.90
61201;DHT22;47065;52.898;6.992;2022-11-09T03:11:32;13.00;99.90
61201;DHT22;47065;52.898;6.992;2022-11-09T03:13:58;13.00;99.90
61201;DHT22;47065;52.898;6.992;2022-11-09T03:16:24;13.00;99.90
61201;DHT22;47065;52.898;6.992;2022-11-09T03:18:50;12.90;99.90
61201;DHT22;47065;52.898;6.992;2022-11-09T03:21:16;12.90;99.90
61201;DHT22;47065;52.898;6.992;2022-11-09T03:23:42;13.00;99.90
61201;DHT22;47065;52.898;6.992;2022-11-09T03:26:08;12.90;99.90
61201;DHT22;47065;52.898;6.992;2022-11-09T03:28:33;12.90;99.90
61201;DHT22;47065;52.898;6.992;2022-11-09T03:30:59;13.00;99.90
61201;DHT22;47065;52.898;6.992;2022-11-09T03:33:25;13.00;99.90
61201;DHT22;47065;52.898;6.992;2022-11-09T03:35:50;12.90;99.90
61201;DHT22;47065;52.898;6.992;2022-11-09T03:38:16;12.90;99.90
61201;DHT22;47065;52.898;6.992;2022-11-09T03:40:42;12.90;99.90
61201;DHT22;47065;52.898;6.992;2022-11-09T03:43:08;12.90;99.90
61201;DHT22;47065;52.898;6.992;2022-11-09T03:45:34;12.90;99.90
61201;DHT22;47065;52.898;6.992;2022-11-09T03:48:00;12.80;99.90
61201;DHT22;47065;52.898;6.992;2022-11-09T03:50:27;12.80;99.90
61201;DHT22;47065;52.898;6.992;2022-11-09T03:52:53;12.80;99.90
61201;DHT22;47065;52.898;6.992;2022-11-09T03:55:19;12.80;99.90
61201;DHT22;47065;52.898;6.992;2022-11-09T03:57:45;12.80;99.90
61201;DHT22;47065;52.898;6.992;2022-11-09T04:00:13;12.80;99.90
61201;DHT22;47065;52.898;6.992;2022-11-09T04:02:39;12.70;99.90
61201;DHT22;47065;52.898;6.992;2022-11-09T04:05:05;12.60;99.90
61201;DHT22;47065;52.898;6.992;2022-11-09T04:07:31;12.60;99.90
61201;DHT22;47065;52.898;6.992;2022-11-09T04:09:57;12.60;99.90
61201;DHT22;47065;52.898;6.992;2022-11-09T04:12:22;12.50;99.90
61201;DHT22;47065;52.898;6.992;2022-11-09T04:14:48;12.50;99.90
61201;DHT22;47065;52.898;6.992;2022-11-09T04:17:14;12.60;99.90
61201;DHT22;47065;52.898;6.992;2022-11-09T04:19:39;12.50;99.90
61201;DHT22;47065;52.898;6.992;2022-11-09T04:22:05;12.60;99.90
61201;DHT22;47065;52.898;6.992;2022-11-09T04:24:31;12.50;99.90
61201;DHT22;47065;52.898;6.992;2022-11-09T04:26:56;12.50;99.90
61201;DHT22;47065;52.898;6.992;2022-11-09T04:29:22;12.50;99.90
61201;DHT22;47065;52.898;6.992;2022-11-09T04:31:48;12.60;99.90
61201;DHT22;47065;52.898;6.992;2022-11-09T04:34:14;12.60;99.90
61201;DHT22;47065;52.898;6.992;2022-11-09T04:36:40;12.60;99.90
61201;DHT22;47065;52.898;6.992;2022-11-09T04:39:06;12.60;99.90
61201;DHT22;47065;52.898;6.992;2022-11-09T04:41:31;12.80;99.90
61201;DHT22;47065;52.898;6.992;2022-11-09T04:43:57;12.80;99.90
61201;DHT22;47065;52.898;6.992;2022-11-09T04:46:23;12.90;99.90
61201;DHT22;47065;52.898;6.992;2022-11-09T04:48:48;12.90;99.90
61201;DHT22;47065;52.898;6.992;2022-11-09T04:51:14;12.90;99.90
61201;DHT22;47065;52.898;6.992;2022-11-09T04:53:40;12.90;99.90
61201;DHT22;47065;52.898;6.992;2022-11-09T04:56:06;12.90;99.90
61201;DHT22;47065;52.898;6.992;2022-11-09T04:58:32;12.90;99.90
61201;DHT22;47065;52.898;6.992;2022-11-09T05:01:07;12.90;99.90
61201;DHT22;47065;52.898;6.992;2022-11-09T05:03:33;12.90;99.90
61201;DHT22;47065;52.898;6.992;2022-11-09T05:05:58;12.90;99.90
61201;DHT22;47065;52.898;6.992;2022-11-09T05:08:24;12.90;99.90
61201;DHT22;47065;52.898;6.992;2022-11-09T05:10:50;13.00;99.90
61201;DHT22;47065;52.898;6.992;2022-11-09T05:13:16;13.00;99.90
61201;DHT22;47065;52.898;6.992;2022-11-09T05:15:41;12.90;99.90
61201;DHT22;47065;52.898;6.992;2022-11-09T05:18:07;12.90;99.90
61201;DHT22;47065;52.898;6.992;2022-11-09T05:20:35;12.80;99.90
61201;DHT22;47065;52.898;6.992;2022-11-09T05:23:01;12.80;99.90
61201;DHT22;47065;52.898;6.992;2022-11-09T05:25:45;12.80;99.90
61201;DHT22;47065;52.898;6.992;2022-11-09T05:28:11;12.80;99.90
61201;DHT22;47065;52.898;6.992;2022-11-09T05:30:37;12.70;99.90
61201;DHT22;47065;52.898;6.992;2022-11-09T05:33:04;12.80;99.90
61201;DHT22;47065;52.898;6.992;2022-11-09T05:35:29;12.80;99.90
61201;DHT22;47065;52.898;6.992;2022-11-09T05:37:55;12.80;99.90
61201;DHT22;47065;52.898;6.992;2022-11-09T05:40:20;12.70;99.90
61201;DHT22;47065;52.898;6.992;2022-11-09T05:42:46;12.70;99.90
61201;DHT22;47065;52.898;6.992;2022-11-09T05:45:14;12.70;99.90
61201;DHT22;47065;52.898;6.992;2022-11-09T05:47:42;12.70;99.90
61201;DHT22;47065;52.898;6.992;2022-11-09T05:50:11;12.70;99.90
61201;DHT22;47065;52.898;6.992;2022-11-09T05:52:37;12.70;99.90
61201;DHT22;47065;52.898;6.992;2022-11-09T05:55:03;12.70;99.90
61201;DHT22;47065;52.898;6.992;2022-11-09T05:57:29;12.70;99.90
61201;DHT22;47065;52.898;6.992;2022-11-09T05:59:55;12.70;99.90
61201;DHT22;47065;52.898;6.992;2022-11-09T06:02:21;12.60;99.90
61201;DHT22;47065;52.898;6.992;2022-11-09T06:04:47;12.60;99.90
61201;DHT22;47065;52.898;6.992;2022-11-09T06:07:12;12.60;99.90
61201;DHT22;47065;52.898;6.992;2022-11-09T06:09:38;12.60;99.90
61201;DHT22;47065;52.898;6.992;2022-11-09T06:12:04;12.60;99.90
61201;DHT22;47065;52.898;6.992;2022-11-09T06:14:30;12.60;99.90
61201;DHT22;47065;52.898;6.992;2022-11-09T06:16:55;12.60;99.90
61201;DHT22;47065;52.898;6.992;2022-11-09T06:19:21;12.60;99.90
61201;DHT22;47065;52.898;6.992;2022-11-09T06:21:46;12.60;99.90
61201;DHT22;47065;52.898;6.992;2022-11-09T06:24:12;12.50;99.90
61201;DHT22;47065;52.898;6.992;2022-11-09T06:26:37;12.50;99.90
61201;DHT22;47065;52.898;6.992;2022-11-09T06:29:04;12.50;99.90
61201;DHT22;47065;52.898;6.992;2022-11-09T06:31:30;12.50;99.90
61201;DHT22;47065;52.898;6.992;2022-11-09T06:33:55;12.40;99.90
61201;DHT22;47065;52.898;6.992;2022-11-09T06:36:21;12.50;99.90
61201;DHT22;47065;52.898;6.992;2022-11-09T06:38:50;12.40;99.90
61201;DHT22;47065;52.898;6.992;2022-11-09T06:41:17;12.50;99.90
61201;DHT22;47065;52.898;6.992;2022-11-09T06:43:43;12.40;99.90
61201;DHT22;47065;52.898;6.992;2022-11-09T06:46:11;12.40;99.90
61201;DHT22;47065;52.898;6.992;2022-11-09T06:48:37;12.30;99.90
61201;DHT22;47065;52.898;6.992;2022-11-09T06:51:05;12.30;99.90
61201;DHT22;47065;52.898;6.992;2022-11-09T06:53:32;12.30;99.90
61201;DHT22;47065;52.898;6.992;2022-11-09T06:56:00;12.30;99.90
61201;DHT22;47065;52.898;6.992;2022-11-09T06:58:27;12.20;99.90
61201;DHT22;47065;52.898;6.992;2022-11-09T07:00:53;12.20;99.90
61201;DHT22;47065;52.898;6.992;2022-11-09T07:03:20;12.20;99.90
61201;DHT22;47065;52.898;6.992;2022-11-09T07:05:47;12.20;99.90
61201;DHT22;47065;52.898;6.992;2022-11-09T07:08:14;12.10;99.90
61201;DHT22;47065;52.898;6.992;2022-11-09T07:10:40;12.20;99.90
61201;DHT22;47065;52.898;6.992;2022-11-09T07:13:06;12.20;99.90
61201;DHT22;47065;52.898;6.992;2022-11-09T07:15:33;12.20;99.90
61201;DHT22;47065;52.898;6.992;2022-11-09T07:18:00;12.20;99.90
61201;DHT22;47065;52.898;6.992;2022-11-09T07:20:27;12.20;99.90
61201;DHT22;47065;52.898;6.992;2022-11-09T07:22:53;12.20;99.90
61201;DHT22;47065;52.898;6.992;2022-11-09T07:25:19;12.20;99.90
61201;DHT22;47065;52.898;6.992;2022-11-09T07:27:45;12.20;99.90
61201;DHT22;47065;52.898;6.992;2022-11-09T07:30:11;12.20;99.90
61201;DHT22;47065;52.898;6.992;2022-11-09T07:32:38;12.20;99.90
61201;DHT22;47065;52.898;6.992;2022-11-09T07:35:04;12.20;99.90
61201;DHT22;47065;52.898;6.992;2022-11-09T07:37:30;12.20;99.90
61201;DHT22;47065;52.898;6.992;2022-11-09T07:39:56;12.20;99.90
61201;DHT22;47065;52.898;6.992;2022-11-09T07:42:23;12.20;99.90
61201;DHT22;47065;52.898;6.992;2022-11-09T07:44:48;12.30;99.90
61201;DHT22;47065;52.898;6.992;2022-11-09T07:47:17;12.30;99.90
61201;DHT22;47065;52.898;6.992;2022-11-09T07:49:43;12.30;99.90
61201;DHT22;47065;52.898;6.992;2022-11-09T07:52:09;12.30;99.90
61201;DHT22;47065;52.898;6.992;2022-11-09T07:54:34;12.40;99.90
61201;DHT22;47065;52.898;6.992;2022-11-09T07:57:01;12.40;99.90
61201;DHT22;47065;52.898;6.992;2022-11-09T07:59:26;12.40;99.90
61201;DHT22;47065;52.898;6.992;2022-11-09T08:01:52;12.40;99.90
61201;DHT22;47065;52.898;6.992;2022-11-09T08:04:18;12.50;99.90
61201;DHT22;47065;52.898;6.992;2022-11-09T08:06:43;12.40;99.90
61201;DHT22;47065;52.898;6.992;2022-11-09T08:09:09;12.40;99.90
61201;DHT22;47065;52.898;6.992;2022-11-09T08:11:35;12.50;99.90
61201;DHT22;47065;52.898;6.992;2022-11-09T08:14:00;12.50;99.90
61201;DHT22;47065;52.898;6.992;2022-11-09T08:16:26;12.50;99.90
61201;DHT22;47065;52.898;6.992;2022-11-09T08:18:51;12.60;99.90
61201;DHT22;47065;52.898;6.992;2022-11-09T08:21:17;12.60;99.90
61201;DHT22;47065;52.898;6.992;2022-11-09T08:23:44;12.70;99.90
61201;DHT22;47065;52.898;6.992;2022-11-09T08:26:10;12.70;99.90
61201;DHT22;47065;52.898;6.992;2022-11-09T08:28:36;12.70;99.90
61201;DHT22;47065;52.898;6.992;2022-11-09T08:31:04;12.80;99.90
61201;DHT22;47065;52.898;6.992;2022-11-09T08:33:34;12.80;99.90
61201;DHT22;47065;52.898;6.992;2022-11-09T08:36:00;12.90;99.90
61201;DHT22;47065;52.898;6.992;2022-11-09T08:38:26;13.10;99.90
61201;DHT22;47065;52.898;6.992;2022-11-09T08:41:00;13.20;99.90
61201;DHT22;47065;52.898;6.992;2022-11-09T08:43:26;13.40;99.90
61201;DHT22;47065;52.898;6.992;2022-11-09T08:45:52;13.60;99.90
61201;DHT22;47065;52.898;6.992;2022-11-09T08:48:18;13.70;99.90
61201;DHT22;47065;52.898;6.992;2022-11-09T08:50:43;13.70;99.90
61201;DHT22;47065;52.898;6.992;2022-11-09T08:53:10;13.90;99.90
61201;DHT22;47065;52.898;6.992;2022-11-09T08:55:36;14.10;99.90
61201;DHT22;47065;52.898;6.992;2022-11-09T08:58:03;14.50;99.90
61201;DHT22;47065;52.898;6.992;2022-11-09T09:00:29;14.80;99.90
61201;DHT22;47065;52.898;6.992;2022-11-09T09:02:55;14.90;99.90
61201;DHT22;47065;52.898;6.992;2022-11-09T09:05:21;14.90;99.90
61201;DHT22;47065;52.898;6.992;2022-11-09T09:07:47;14.70;99.90
61201;DHT22;47065;52.898;6.992;2022-11-09T09:10:13;14.60;99.90
61201;DHT22;47065;52.898;6.992;2022-11-09T09:12:38;14.50;99.90
61201;DHT22;47065;52.898;6.992;2022-11-09T09:15:04;14.50;99.90
61201;DHT22;47065;52.898;6.992;2022-11-09T09:17:30;14.40;99.90
61201;DHT22;47065;52.898;6.992;2022-11-09T09:19:56;14.30;99.90
61201;DHT22;47065;52.898;6.992;2022-11-09T09:22:21;14.30;99.90
61201;DHT22;47065;52.898;6.992;2022-11-09T09:24:47;14.40;99.90
61201;DHT22;47065;52.898;6.992;2022-11-09T09:27:13;14.50;99.90
61201;DHT22;47065;52.898;6.992;2022-11-09T09:29:38;14.60;99.90
61201;DHT22;47065;52.898;6.992;2022-11-09T09:32:04;14.70;99.90
61201;DHT22;47065;52.898;6.992;2022-11-09T09:34:30;14.70;99.90
61201;DHT22;47065;52.898;6.992;2022-11-09T09:36:55;14.70;99.90
61201;DHT22;47065;52.898;6.992;2022-11-09T09:39:21;14.70;99.90
61201;DHT22;47065;52.898;6.992;2022-11-09T09:41:53;14.80;99.90
61201;DHT22;47065;52.898;6.992;2022-11-09T09:48:01;14.80;99.90
61201;DHT22;47065;52.898;6.992;2022-11-09T09:49:58;14.80;99.90
61201;DHT22;47065;52.898;6.992;2022-11-09T09:55:08;14.80;99.90
61201;DHT22;47065;52.898;6.992;2022-11-09T09:57:40;14.70;99.90
61201;DHT22;47065;52.898;6.992;2022-11-09T10:00:18;14.60;99.90
61201;DHT22;47065;52.898;6.992;2022-11-09T10:02:45;14.60;99.90
61201;DHT22;47065;52.898;6.992;2022-11-09T10:05:14;14.60;99.90
61201;DHT22;47065;52.898;6.992;2022-11-09T10:10:54;14.70;99.90
61201;DHT22;47065;52.898;6.992;2022-11-09T10:16:26;14.80;99.90
61201;DHT22;47065;52.898;6.992;2022-11-09T10:21:53;14.80;99.90
61201;DHT22;47065;52.898;6.992;2022-11-09T10:24:49;14.70;99.90
61201;DHT22;47065;52.898;6.992;2022-11-09T10:27:36;14.70;99.90
61201;DHT22;47065;52.898;6.992;2022-11-09T10:30:16;14.60;99.90
61201;DHT22;47065;52.898;6.992;2022-11-09T10:32:45;14.50;99.90
61201;DHT22;47065;52.898;6.992;2022-11-09T10:35:20;14.40;99.90
61201;DHT22;47065;52.898;6.992;2022-11-09T10:37:50;14.50;99.90
61201;DHT22;47065;52.898;6.992;2022-11-09T10:43:01;14.40;99.90
61201;DHT22;47065;52.898;6.992;2022-11-09T10:45:36;14.50;99.90
61201;DHT22;47065;52.898;6.992;2022-11-09T10:48:03;14.50;99.90
61201;DHT22;47065;52.898;6.992;2022-11-09T10:53:26;14.50;99.90
61201;DHT22;47065;52.898;6.992;2022-11-09T11:01:15;14.60;99.90
61201;DHT22;47065;52.898;6.992;2022-11-09T11:03:42;14.70;99.90
61201;DHT22;47065;52.898;6.992;2022-11-09T11:06:15;14.80;99.90
61201;DHT22;47065;52.898;6.992;2022-11-09T11:08:47;15.00;99.90
61201;DHT22;47065;52.898;6.992;2022-11-09T11:11:27;15.00;99.90
61201;DHT22;47065;52.898;6.992;2022-11-09T11:14:16;15.10;99.90
61201;DHT22;47065;52.898;6.992;2022-11-09T11:16:43;15.20;99.90
61201;DHT22;47065;52.898;6.992;2022-11-09T11:19:39;15.20;99.90
61201;DHT22;47065;52.898;6.992;2022-11-09T11:27:43;15.10;99.90
61201;DHT22;47065;52.898;6.992;2022-11-09T11:30:14;15.10;99.90
61201;DHT22;47065;52.898;6.992;2022-11-09T11:32:41;15.20;99.90
61201;DHT22;47065;52.898;6.992;2022-11-09T11:35:22;15.20;99.90
61201;DHT22;47065;52.898;6.992;2022-11-09T11:40:40;15.20;99.90
61201;DHT22;47065;52.898;6.992;2022-11-09T11:46:02;15.10;99.90
61201;DHT22;47065;52.898;6.992;2022-11-09T11:53:40;15.00;99.90
61201;DHT22;47065;52.898;6.992;2022-11-09T12:06:46;14.70;99.90
61201;DHT22;47065;52.898;6.992;2022-11-09T12:15:00;14.60;99.90
61201;DHT22;47065;52.898;6.992;2022-11-09T12:17:48;14.50;99.90
61201;DHT22;47065;52.898;6.992;2022-11-09T12:31:47;14.60;99.90
61201;DHT22;47065;52.898;6.992;2022-11-09T12:34:42;14.70;99.90
61201;DHT22;47065;52.898;6.992;2022-11-09T12:37:18;14.80;99.90
61201;DHT22;47065;52.898;6.992;2022-11-09T12:39:50;14.80;99.90
61201;DHT22;47065;52.898;6.992;2022-11-09T12:42:36;14.70;99.90
61201;DHT22;47065;52.898;6.992;2022-11-09T12:45:33;14.70;99.90
61201;DHT22;47065;52.898;6.992;2022-11-09T12:48:08;14.70;99.90
61201;DHT22;47065;52.898;6.992;2022-11-09T12:50:36;14.70;99.90
61201;DHT22;47065;52.898;6.992;2022-11-09T12:53:03;14.70;99.90
61201;DHT22;47065;52.898;6.992;2022-11-09T12:55:53;14.70;99.90
61201;DHT22;47065;52.898;6.992;2022-11-09T12:58:38;14.80;99.90
61201;DHT22;47065;52.898;6.992;2022-11-09T13:01:07;14.90;99.90
61201;DHT22;47065;52.898;6.992;2022-11-09T13:03:56;15.00;99.90
61201;DHT22;47065;52.898;6.992;2022-11-09T13:09:05;15.00;99.90
61201;DHT22;47065;52.898;6.992;2022-11-09T13:17:00;14.90;99.90
61201;DHT22;47065;52.898;6.992;2022-11-09T13:24:58;14.80;98.70
61201;DHT22;47065;52.898;6.992;2022-11-09T13:27:47;14.60;99.50
61201;DHT22;47065;52.898;6.992;2022-11-09T13:38:24;14.50;99.90
61201;DHT22;47065;52.898;6.992;2022-11-09T13:40:55;14.40;99.90
61201;DHT22;47065;52.898;6.992;2022-11-09T13:43:31;14.40;99.90
61201;DHT22;47065;52.898;6.992;2022-11-09T13:48:33;14.40;99.90
61201;DHT22;47065;52.898;6.992;2022-11-09T13:51:13;14.40;99.90
61201;DHT22;47065;52.898;6.992;2022-11-09T13:53:59;14.40;99.90
61201;DHT22;47065;52.898;6.992;2022-11-09T13:56:38;14.40;99.90
61201;DHT22;47065;52.898;6.992;2022-11-09T13:59:13;14.40;99.90
61201;DHT22;47065;52.898;6.992;2022-11-09T14:01:51;14.40;99.90
61201;DHT22;47065;52.898;6.992;2022-11-09T14:04:29;14.50;99.90
61201;DHT22;47065;52.898;6.992;2022-11-09T14:07:03;14.40;99.60
61201;DHT22;47065;52.898;6.992;2022-11-09T14:09:48;14.30;99.00
61201;DHT22;47065;52.898;6.992;2022-11-09T14:23:19;14.10;99.90
61201;DHT22;47065;52.898;6.992;2022-11-09T14:25:45;14.10;99.90
61201;DHT22;47065;52.898;6.992;2022-11-09T14:28:26;14.10;99.90
61201;DHT22;47065;52.898;6.992;2022-11-09T14:30:53;14.00;99.90
61201;DHT22;47065;52.898;6.992;2022-11-09T14:35:47;13.90;99.90
61201;DHT22;47065;52.898;6.992;2022-11-09T14:40:47;13.90;99.90
61201;DHT22;47065;52.898;6.992;2022-11-09T14:43:24;13.90;99.90
61201;DHT22;47065;52.898;6.992;2022-11-09T14:45:53;13.90;99.90
61201;DHT22;47065;52.898;6.992;2022-11-09T14:48:20;13.90;99.90
61201;DHT22;47065;52.898;6.992;2022-11-09T14:50:46;13.90;99.90
61201;DHT22;47065;52.898;6.992;2022-11-09T14:53:15;13.90;99.90
61201;DHT22;47065;52.898;6.992;2022-11-09T14:55:41;13.90;99.90
61201;DHT22;47065;52.898;6.992;2022-11-09T14:58:12;13.90;99.90
61201;DHT22;47065;52.898;6.992;2022-11-09T15:00:38;13.90;99.90
61201;DHT22;47065;52.898;6.992;2022-11-09T15:03:25;13.90;99.90
61201;DHT22;47065;52.898;6.992;2022-11-09T15:06:03;13.80;99.90
61201;DHT22;47065;52.898;6.992;2022-11-09T15:08:29;13.70;99.90
61201;DHT22;47065;52.898;6.992;2022-11-09T15:10:55;13.60;99.90
61201;DHT22;47065;52.898;6.992;2022-11-09T15:13:34;13.40;99.90
61201;DHT22;47065;52.898;6.992;2022-11-09T15:16:01;13.30;99.90
61201;DHT22;47065;52.898;6.992;2022-11-09T15:18:32;13.10;99.90
61201;DHT22;47065;52.898;6.992;2022-11-09T15:21:17;13.10;99.90
61201;DHT22;47065;52.898;6.992;2022-11-09T15:23:46;12.90;99.90
61201;DHT22;47065;52.898;6.992;2022-11-09T15:28:52;12.70;99.90
61201;DHT22;47065;52.898;6.992;2022-11-09T15:31:18;12.70;99.90
61201;DHT22;47065;52.898;6.992;2022-11-09T15:33:50;12.60;99.90
61201;DHT22;47065;52.898;6.992;2022-11-09T15:36:30;12.50;99.90
61201;DHT22;47065;52.898;6.992;2022-11-09T15:39:08;12.50;99.90
61201;DHT22;47065;52.898;6.992;2022-11-09T15:41:36;12.60;99.90
61201;DHT22;47065;52.898;6.992;2022-11-09T15:44:03;12.60;99.90
61201;DHT22;47065;52.898;6.992;2022-11-09T15:46:34;12.60;99.90
61201;DHT22;47065;52.898;6.992;2022-11-09T15:49:23;12.60;99.90
61201;DHT22;47065;52.898;6.992;2022-11-09T15:51:49;12.60;99.90
61201;DHT22;47065;52.898;6.992;2022-11-09T15:54:15;12.60;99.90
61201;DHT22;47065;52.898;6.992;2022-11-09T15:56:41;12.60;99.90
61201;DHT22;47065;52.898;6.992;2022-11-09T15:59:15;12.70;99.90
61201;DHT22;47065;52.898;6.992;2022-11-09T16:01:42;12.60;99.90
61201;DHT22;47065;52.898;6.992;2022-11-09T16:04:07;12.60;99.90
61201;DHT22;47065;52.898;6.992;2022-11-09T16:06:33;12.50;99.90
61201;DHT22;47065;52.898;6.992;2022-11-09T16:08:59;12.50;99.90
61201;DHT22;47065;52.898;6.992;2022-11-09T16:11:24;12.40;99.90
61201;DHT22;47065;52.898;6.992;2022-11-09T16:13:50;12.30;99.90
61201;DHT22;47065;52.898;6.992;2022-11-09T16:16:15;12.30;99.90
61201;DHT22;47065;52.898;6.992;2022-11-09T16:18:41;12.20;99.90
61201;DHT22;47065;52.898;6.992;2022-11-09T16:21:09;12.10;99.90
61201;DHT22;47065;52.898;6.992;2022-11-09T16:23:36;12.10;99.90
61201;DHT22;47065;52.898;6.992;2022-11-09T16:26:10;12.00;99.90
61201;DHT22;47065;52.898;6.992;2022-11-09T16:28:36;11.90;99.90
61201;DHT22;47065;52.898;6.992;2022-11-09T16:31:05;11.80;99.90
61201;DHT22;47065;52.898;6.992;2022-11-09T16:33:31;11.70;99.90
61201;DHT22;47065;52.898;6.992;2022-11-09T16:35:59;11.70;99.90
61201;DHT22;47065;52.898;6.992;2022-11-09T16:38:30;11.60;99.90
61201;DHT22;47065;52.898;6.992;2022-11-09T16:40:58;11.60;99.90
61201;DHT22;47065;52.898;6.992;2022-11-09T16:43:24;11.60;99.90
61201;DHT22;47065;52.898;6.992;2022-11-09T16:45:50;11.50;99.90
61201;DHT22;47065;52.898;6.992;2022-11-09T16:48:16;11.50;99.90
61201;DHT22;47065;52.898;6.992;2022-11-09T16:50:43;11.40;99.90
61201;DHT22;47065;52.898;6.992;2022-11-09T16:53:09;11.40;99.90
61201;DHT22;47065;52.898;6.992;2022-11-09T16:55:35;11.40;99.90
61201;DHT22;47065;52.898;6.992;2022-11-09T16:58:01;11.30;99.90
61201;DHT22;47065;52.898;6.992;2022-11-09T17:00:27;11.30;99.90
61201;DHT22;47065;52.898;6.992;2022-11-09T17:02:52;11.30;99.90
61201;DHT22;47065;52.898;6.992;2022-11-09T17:05:18;11.30;99.90
61201;DHT22;47065;52.898;6.992;2022-11-09T17:07:46;11.30;99.90
61201;DHT22;47065;52.898;6.992;2022-11-09T17:10:12;11.30;99.90
61201;DHT22;47065;52.898;6.992;2022-11-09T17:12:38;11.20;99.90
61201;DHT22;47065;52.898;6.992;2022-11-09T17:15:04;11.20;99.90
61201;DHT22;47065;52.898;6.992;2022-11-09T17:17:30;11.20;99.90
61201;DHT22;47065;52.898;6.992;2022-11-09T17:19:55;11.20;99.90
61201;DHT22;47065;52.898;6.992;2022-11-09T17:22:21;11.20;99.90
61201;DHT22;47065;52.898;6.992;2022-11-09T17:24:47;11.20;99.90
61201;DHT22;47065;52.898;6.992;2022-11-09T17:27:12;11.10;99.90
61201;DHT22;47065;52.898;6.992;2022-11-09T17:29:39;11.10;99.90
61201;DHT22;47065;52.898;6.992;2022-11-09T17:32:06;11.10;99.90